createdAt,value
2019-04-13T00:00:42.750Z,45.45
2019-04-13T00:01:49.505Z,45.46
2019-04-13T00:02:51.754Z,45.49
2019-04-13T00:03:53.948Z,45.47
2019-04-13T00:05:15.108Z,45.46
2019-04-13T00:06:27.497Z,45.45
2019-04-13T00:07:29.696Z,45.41
2019-04-13T00:08:33.958Z,45.42
2019-04-13T00:09:36.185Z,45.40
2019-04-13T00:11:03.372Z,45.40
2019-04-13T00:12:33.541Z,45.38
2019-04-13T00:13:35.743Z,45.40
2019-04-13T00:14:38.265Z,45.38
2019-04-13T00:15:40.498Z,45.40
2019-04-13T00:16:42.861Z,45.39
2019-04-13T00:17:45.088Z,45.44
2019-04-13T00:18:47.310Z,45.41
2019-04-13T00:19:49.526Z,45.41
2019-04-13T00:20:51.766Z,45.37
2019-04-13T00:21:53.985Z,45.36
2019-04-13T00:22:56.190Z,45.41
2019-04-13T00:23:58.422Z,45.44
2019-04-13T00:25:00.618Z,45.41
2019-04-13T00:26:02.759Z,45.38
2019-04-13T00:27:04.962Z,45.34
2019-04-13T00:28:07.221Z,45.42
2019-04-13T00:29:09.434Z,45.41
2019-04-13T00:30:11.633Z,45.35
2019-04-13T00:31:13.850Z,45.35
2019-04-13T00:32:16.054Z,45.34
2019-04-13T00:33:18.271Z,45.43
2019-04-13T00:34:20.487Z,45.35
2019-04-13T00:35:22.696Z,45.37
2019-04-13T00:36:24.898Z,45.38
2019-04-13T00:37:27.036Z,45.36
2019-04-13T00:38:29.262Z,45.33
2019-04-13T00:39:31.475Z,45.31
2019-04-13T00:40:33.670Z,45.28
2019-04-13T00:41:35.877Z,45.31
2019-04-13T00:42:38.078Z,45.29
2019-04-13T00:43:40.316Z,45.33
2019-04-13T00:44:42.508Z,45.34
2019-04-13T00:45:44.711Z,45.36
2019-04-13T00:46:46.909Z,45.40
2019-04-13T00:47:49.108Z,45.31
2019-04-13T00:48:51.334Z,45.31
2019-04-13T00:49:53.540Z,45.34
2019-04-13T00:50:55.753Z,45.34
2019-04-13T00:51:57.954Z,45.31
2019-04-13T00:53:00.171Z,45.31
2019-04-13T00:54:02.399Z,45.32
2019-04-13T00:55:04.607Z,45.32
2019-04-13T00:56:06.812Z,45.32
2019-04-13T00:57:09.007Z,45.32
2019-04-13T00:58:11.237Z,45.30
2019-04-13T00:59:13.466Z,45.35
2019-04-13T01:00:15.668Z,45.30
2019-04-13T01:01:17.887Z,45.27
2019-04-13T01:02:20.104Z,45.27
2019-04-13T01:03:22.314Z,45.27
2019-04-13T01:04:24.543Z,45.32
2019-04-13T01:05:26.763Z,45.29
2019-04-13T01:06:29.043Z,45.32
2019-04-13T01:07:31.280Z,45.27
2019-04-13T01:08:33.502Z,45.26
2019-04-13T01:09:35.703Z,45.27
2019-04-13T01:10:37.918Z,45.26
2019-04-13T01:11:40.141Z,45.28
2019-04-13T01:12:42.351Z,45.23
2019-04-13T01:13:44.591Z,45.22
2019-04-13T01:14:46.799Z,45.25
2019-04-13T01:15:49.034Z,45.26
2019-04-13T01:16:51.252Z,45.21
2019-04-13T01:17:53.463Z,45.17
2019-04-13T01:18:56.998Z,45.26
2019-04-13T01:19:59.381Z,45.17
2019-04-13T01:21:01.592Z,45.23
2019-04-13T01:22:03.812Z,45.23
2019-04-13T01:23:06.035Z,45.24
2019-04-13T01:24:08.271Z,45.22
2019-04-13T01:25:10.477Z,45.24
2019-04-13T01:26:12.683Z,45.24
2019-04-13T01:27:14.897Z,45.24
2019-04-13T01:28:17.099Z,45.20
2019-04-13T01:29:19.328Z,45.21
2019-04-13T01:30:21.525Z,45.23
2019-04-13T01:31:23.737Z,45.26
2019-04-13T01:32:25.943Z,45.21
2019-04-13T01:33:29.148Z,45.21
2019-04-13T01:34:31.373Z,45.20
2019-04-13T01:35:33.601Z,45.22
2019-04-13T01:36:35.813Z,45.19
2019-04-13T01:37:38.016Z,45.17
2019-04-13T01:38:40.211Z,45.16
2019-04-13T01:39:42.437Z,45.16
2019-04-13T01:40:44.643Z,45.14
2019-04-13T01:41:46.865Z,45.18
2019-04-13T01:42:49.075Z,45.17
2019-04-13T01:43:51.279Z,45.16
2019-04-13T01:44:53.504Z,45.13
2019-04-13T01:45:55.722Z,45.14
2019-04-13T01:46:57.933Z,45.18
2019-04-13T01:48:00.134Z,45.15
2019-04-13T01:49:02.417Z,45.16
2019-04-13T01:50:04.570Z,45.13
2019-04-13T01:51:06.781Z,45.15
2019-04-13T01:52:08.987Z,45.14
2019-04-13T01:53:11.193Z,45.11
2019-04-13T01:54:13.412Z,45.13
2019-04-13T01:55:15.635Z,45.15
2019-04-13T01:56:17.867Z,45.15
2019-04-13T01:57:20.077Z,45.14
2019-04-13T01:58:22.296Z,45.09
2019-04-13T01:59:24.505Z,45.13
2019-04-13T02:00:38.673Z,45.09
2019-04-13T02:02:05.859Z,45.12
2019-04-13T02:03:08.069Z,45.07
2019-04-13T02:04:27.489Z,45.11
2019-04-13T02:05:40.804Z,45.12
2019-04-13T02:07:01.946Z,45.10
2019-04-13T02:08:38.517Z,45.09
2019-04-13T02:09:58.477Z,45.09
2019-04-13T02:11:05.503Z,45.06
2019-04-13T02:12:07.715Z,45.07
2019-04-13T02:13:10.044Z,45.06
2019-04-13T02:14:12.263Z,45.07
2019-04-13T02:15:14.458Z,45.07
2019-04-13T02:16:16.665Z,45.10
2019-04-13T02:17:18.870Z,45.06
2019-04-13T02:18:21.079Z,45.03
2019-04-13T02:19:23.302Z,45.04
2019-04-13T02:20:25.505Z,45.05
2019-04-13T02:21:27.697Z,44.99
2019-04-13T02:22:29.904Z,45.03
2019-04-13T02:23:32.125Z,45.02
2019-04-13T02:24:34.328Z,45.05
2019-04-13T02:25:36.558Z,45.05
2019-04-13T02:26:38.767Z,45.06
2019-04-13T02:27:40.971Z,45.03
2019-04-13T02:28:43.175Z,44.97
2019-04-13T02:29:45.384Z,45.02
2019-04-13T02:30:47.602Z,45.00
2019-04-13T02:31:49.815Z,44.96
2019-04-13T02:32:52.024Z,44.98
2019-04-13T02:33:54.230Z,44.96
2019-04-13T02:34:56.470Z,44.97
2019-04-13T02:35:58.675Z,44.95
2019-04-13T02:37:00.867Z,44.98
2019-04-13T02:38:03.081Z,44.98
2019-04-13T02:39:06.111Z,45.00
2019-04-13T02:40:08.348Z,44.97
2019-04-13T02:41:10.547Z,44.98
2019-04-13T02:42:12.751Z,45.00
2019-04-13T02:43:14.958Z,44.96
2019-04-13T02:44:17.179Z,44.94
2019-04-13T02:45:19.396Z,44.90
2019-04-13T02:46:21.603Z,44.89
2019-04-13T02:47:23.817Z,44.86
2019-04-13T02:48:26.030Z,44.86
2019-04-13T02:49:28.251Z,44.85
2019-04-13T02:50:30.491Z,44.86
2019-04-13T02:51:32.695Z,44.88
2019-04-13T02:52:34.916Z,44.88
2019-04-13T02:53:37.128Z,44.88
2019-04-13T02:54:39.390Z,44.88
2019-04-13T02:55:41.622Z,44.88
2019-04-13T02:56:43.832Z,44.89
2019-04-13T02:57:46.018Z,44.86
2019-04-13T02:58:48.233Z,44.85
2019-04-13T02:59:50.447Z,44.85
2019-04-13T03:00:52.659Z,44.82
2019-04-13T03:01:54.877Z,44.76
2019-04-13T03:02:57.080Z,44.76
2019-04-13T03:03:59.281Z,44.79
2019-04-13T03:05:01.496Z,44.79
2019-04-13T03:06:03.727Z,44.80
2019-04-13T03:07:05.952Z,44.79
2019-04-13T03:08:08.144Z,44.78
2019-04-13T03:09:10.348Z,44.78
2019-04-13T03:10:12.572Z,44.78
2019-04-13T03:11:14.830Z,44.70
2019-04-13T03:12:16.992Z,44.71
2019-04-13T03:13:19.144Z,44.69
2019-04-13T03:14:21.398Z,44.71
2019-04-13T03:15:25.192Z,44.72
2019-04-13T03:16:45.029Z,44.71
2019-04-13T03:18:01.540Z,44.74
2019-04-13T03:19:10.682Z,44.74
2019-04-13T03:20:31.867Z,44.67
2019-04-13T03:21:34.062Z,44.75
2019-04-13T03:22:36.276Z,44.66
2019-04-13T03:23:38.478Z,44.72
2019-04-13T03:24:40.682Z,44.75
2019-04-13T03:25:42.910Z,44.72
2019-04-13T03:26:45.119Z,44.70
2019-04-13T03:27:47.415Z,44.62
2019-04-13T03:28:49.650Z,44.73
2019-04-13T03:29:51.855Z,44.70
2019-04-13T03:30:54.078Z,44.70
2019-04-13T03:31:56.284Z,44.69
2019-04-13T03:32:58.487Z,44.68
2019-04-13T03:34:00.712Z,44.69
2019-04-13T03:35:02.918Z,44.69
2019-04-13T03:36:05.143Z,44.72
2019-04-13T03:37:07.316Z,44.67
2019-04-13T03:38:09.527Z,44.67
2019-04-13T03:39:11.718Z,44.68
2019-04-13T03:40:13.923Z,44.67
2019-04-13T03:41:16.142Z,44.65
2019-04-13T03:42:18.358Z,44.64
2019-04-13T03:43:20.553Z,44.67
2019-04-13T03:44:22.813Z,44.78
2019-04-13T03:45:24.966Z,44.68
2019-04-13T03:46:27.186Z,44.69
2019-04-13T03:47:29.515Z,44.65
2019-04-13T03:48:31.706Z,44.73
2019-04-13T03:49:33.919Z,44.80
2019-04-13T03:50:37.928Z,44.69
2019-04-13T03:51:40.150Z,44.79
2019-04-13T03:52:42.346Z,44.71
2019-04-13T03:53:44.553Z,44.60
2019-04-13T03:54:46.753Z,44.61
2019-04-13T03:55:48.966Z,44.70
2019-04-13T03:56:51.204Z,44.66
2019-04-13T03:57:53.408Z,44.69
2019-04-13T03:58:55.611Z,44.73
2019-04-13T03:59:57.984Z,44.77
2019-04-13T04:01:00.161Z,44.68
2019-04-13T04:02:02.420Z,44.72
2019-04-13T04:03:04.562Z,44.81
2019-04-13T04:04:06.757Z,44.69
2019-04-13T04:05:08.930Z,44.81
2019-04-13T04:06:12.153Z,44.72
2019-04-13T04:07:15.018Z,44.65
2019-04-13T04:08:17.566Z,44.66
2019-04-13T04:09:20.055Z,44.63
2019-04-13T04:10:22.276Z,44.66
2019-04-13T04:11:24.513Z,44.71
2019-04-13T04:12:26.817Z,44.56
2019-04-13T04:13:29.131Z,44.62
2019-04-13T04:14:31.355Z,44.56
2019-04-13T04:15:33.562Z,44.64
2019-04-13T04:16:36.478Z,44.65
2019-04-13T04:17:38.681Z,44.73
2019-04-13T04:18:40.989Z,44.67
2019-04-13T04:19:43.209Z,44.71
2019-04-13T04:20:45.411Z,44.75
2019-04-13T04:21:47.626Z,44.78
2019-04-13T04:22:49.823Z,44.70
2019-04-13T04:23:52.027Z,44.72
2019-04-13T04:24:54.257Z,44.59
2019-04-13T04:25:56.468Z,44.63
2019-04-13T04:26:58.689Z,44.64
2019-04-13T04:28:00.883Z,44.74
2019-04-13T04:29:03.103Z,44.60
2019-04-13T04:30:05.313Z,44.69
2019-04-13T04:31:07.515Z,44.60
2019-04-13T04:32:09.754Z,44.67
2019-04-13T04:33:12.019Z,44.69
2019-04-13T04:34:14.236Z,44.62
2019-04-13T04:35:16.435Z,44.65
2019-04-13T04:36:23.945Z,44.72
2019-04-13T04:37:22.537Z,44.64
2019-04-13T04:38:24.738Z,44.61
2019-04-13T04:39:26.930Z,44.58
2019-04-13T04:40:29.136Z,44.74
2019-04-13T04:41:31.418Z,44.65
2019-04-13T04:42:33.654Z,44.66
2019-04-13T04:43:35.873Z,44.56
2019-04-13T04:44:38.071Z,44.57
2019-04-13T04:45:40.269Z,44.74
2019-04-13T04:46:42.487Z,44.56
2019-04-13T04:47:44.700Z,44.58
2019-04-13T04:48:46.897Z,44.70
2019-04-13T04:49:49.107Z,44.61
2019-04-13T04:50:51.301Z,44.67
2019-04-13T04:51:53.525Z,44.67
2019-04-13T04:52:55.723Z,44.62
2019-04-13T04:53:57.941Z,44.58
2019-04-13T04:55:00.156Z,44.55
2019-04-13T04:56:02.355Z,44.56
2019-04-13T04:57:04.702Z,44.56
2019-04-13T04:58:06.898Z,44.63
2019-04-13T04:59:09.123Z,44.62
2019-04-13T05:00:11.577Z,44.65
2019-04-13T05:01:13.793Z,44.65
2019-04-13T05:02:16.044Z,44.54
2019-04-13T05:03:18.233Z,44.58
2019-04-13T05:04:20.434Z,44.45
2019-04-13T05:05:22.630Z,44.64
2019-04-13T05:06:35.471Z,44.52
2019-04-13T05:07:28.700Z,44.55
2019-04-13T05:08:30.913Z,44.53
2019-04-13T05:09:33.115Z,44.61
2019-04-13T05:10:35.733Z,44.48
2019-04-13T05:11:37.952Z,44.58
2019-04-13T05:12:40.162Z,44.56
2019-04-13T05:13:42.366Z,44.46
2019-04-13T05:14:44.577Z,44.62
2019-04-13T05:15:46.797Z,44.53
2019-04-13T05:16:48.983Z,44.60
2019-04-13T05:17:51.219Z,44.55
2019-04-13T05:18:53.367Z,44.49
2019-04-13T05:19:55.557Z,44.49
2019-04-13T05:20:57.871Z,44.56
2019-04-13T05:22:00.125Z,44.37
2019-04-13T05:23:02.343Z,44.40
2019-04-13T05:24:04.567Z,44.47
2019-04-13T05:25:06.757Z,44.40
2019-04-13T05:26:08.990Z,44.45
2019-04-13T05:27:11.215Z,44.44
2019-04-13T05:28:13.426Z,44.38
2019-04-13T05:29:15.635Z,44.36
2019-04-13T05:30:17.860Z,44.48
2019-04-13T05:31:20.046Z,44.45
2019-04-13T05:32:22.263Z,44.41
2019-04-13T05:33:24.465Z,44.38
2019-04-13T05:34:26.694Z,44.40
2019-04-13T05:35:28.894Z,44.36
2019-04-13T05:36:31.026Z,44.34
2019-04-13T05:37:33.246Z,44.33
2019-04-13T05:38:35.456Z,44.36
2019-04-13T05:39:37.663Z,44.42
2019-04-13T05:40:39.862Z,44.34
2019-04-13T05:41:42.058Z,44.37
2019-04-13T05:42:44.318Z,44.33
2019-04-13T05:43:46.510Z,44.36
2019-04-13T05:44:48.712Z,44.33
2019-04-13T05:45:50.906Z,44.38
2019-04-13T05:46:53.118Z,44.38
2019-04-13T05:47:55.334Z,44.36
2019-04-13T05:48:57.555Z,44.35
2019-04-13T05:49:59.757Z,44.37
2019-04-13T05:51:01.980Z,44.36
2019-04-13T05:52:04.194Z,44.39
2019-04-13T05:53:06.402Z,44.42
2019-04-13T05:54:08.740Z,44.36
2019-04-13T05:55:10.948Z,44.40
2019-04-13T05:56:13.139Z,44.40
2019-04-13T05:57:15.346Z,44.43
2019-04-13T05:58:17.612Z,44.45
2019-04-13T05:59:21.247Z,44.40
2019-04-13T06:00:23.542Z,44.40
2019-04-13T06:01:25.750Z,44.44
2019-04-13T06:02:27.996Z,44.43
2019-04-13T06:03:30.203Z,44.45
2019-04-13T06:04:32.422Z,44.45
2019-04-13T06:05:34.630Z,44.45
2019-04-13T06:06:36.826Z,44.45
2019-04-13T06:07:39.078Z,44.44
2019-04-13T06:08:41.277Z,44.43
2019-04-13T06:09:43.487Z,44.42
2019-04-13T06:10:47.830Z,44.46
2019-04-13T06:11:49.546Z,44.43
2019-04-13T06:12:54.201Z,44.46
2019-04-13T06:13:57.938Z,44.38
2019-04-13T06:14:59.642Z,44.39
2019-04-13T06:16:06.590Z,44.43
2019-04-13T06:17:07.264Z,44.36
2019-04-13T06:18:20.376Z,44.38
2019-04-13T06:19:13.326Z,44.37
2019-04-13T06:20:15.532Z,44.40
2019-04-13T06:21:17.750Z,44.39
2019-04-13T06:22:19.954Z,44.40
2019-04-13T06:23:22.191Z,44.68
2019-04-13T06:24:24.402Z,44.68
2019-04-13T06:25:29.488Z,44.73
2019-04-13T06:26:30.459Z,44.77
2019-04-13T06:27:32.674Z,44.76
2019-04-13T06:28:34.960Z,44.70
2019-04-13T06:29:37.159Z,44.64
2019-04-13T06:31:03.286Z,44.62
2019-04-13T06:32:26.823Z,44.63
2019-04-13T06:33:43.577Z,44.61
2019-04-13T06:35:03.846Z,44.63
2019-04-13T06:36:08.298Z,44.82
2019-04-13T06:37:12.354Z,44.82
2019-04-13T06:38:13.776Z,44.88
2019-04-13T06:39:15.971Z,44.85
2019-04-13T06:40:18.173Z,44.95
2019-04-13T06:41:20.381Z,44.98
2019-04-13T06:42:22.577Z,45.09
2019-04-13T06:43:26.780Z,45.05
2019-04-13T06:44:32.162Z,45.09
2019-04-13T06:45:32.500Z,45.14
2019-04-13T06:46:34.716Z,45.16
2019-04-13T06:47:36.920Z,45.12
2019-04-13T06:48:39.165Z,45.14
2019-04-13T06:49:41.369Z,45.15
2019-04-13T06:50:43.591Z,45.13
2019-04-13T06:51:45.779Z,45.14
2019-04-13T06:52:48.023Z,45.05
2019-04-13T06:53:50.254Z,45.09
2019-04-13T06:54:52.568Z,45.05
2019-04-13T06:55:54.805Z,45.05
2019-04-13T06:56:57.003Z,45.03
2019-04-13T06:57:59.211Z,45.02
2019-04-13T06:59:01.435Z,45.03
2019-04-13T07:00:03.898Z,44.99
2019-04-13T07:01:06.168Z,44.97
2019-04-13T07:02:08.372Z,44.95
2019-04-13T07:03:10.604Z,44.96
2019-04-13T07:04:12.836Z,44.93
2019-04-13T07:05:15.032Z,44.92
2019-04-13T07:06:17.240Z,44.93
2019-04-13T07:07:45.732Z,44.96
2019-04-13T07:08:52.512Z,45.08
2019-04-13T07:10:07.615Z,45.03
2019-04-13T07:11:24.035Z,44.95
2019-04-13T07:12:33.579Z,44.96
2019-04-13T07:13:43.137Z,45.02
2019-04-13T07:14:45.619Z,45.19
2019-04-13T07:15:51.021Z,45.35
2019-04-13T07:16:56.527Z,45.49
2019-04-13T07:17:58.769Z,45.29
2019-04-13T07:19:00.969Z,45.25
2019-04-13T07:20:03.199Z,45.28
2019-04-13T07:21:05.414Z,45.27
2019-04-13T07:22:07.644Z,45.24
2019-04-13T07:23:09.847Z,45.25
2019-04-13T07:24:12.043Z,45.22
2019-04-13T07:25:14.310Z,45.17
2019-04-13T07:26:16.529Z,45.15
2019-04-13T07:27:18.747Z,45.14
2019-04-13T07:28:20.943Z,45.12
2019-04-13T07:29:24.428Z,45.14
2019-04-13T07:30:26.844Z,45.14
2019-04-13T07:31:31.119Z,45.14
2019-04-13T07:32:34.654Z,45.15
2019-04-13T07:33:36.811Z,45.12
2019-04-13T07:34:39.017Z,45.12
2019-04-13T07:35:41.223Z,45.10
2019-04-13T07:36:43.410Z,45.10
2019-04-13T07:37:45.657Z,45.12
2019-04-13T07:38:47.861Z,45.12
2019-04-13T07:39:50.069Z,45.10
2019-04-13T07:40:52.302Z,45.11
2019-04-13T07:41:54.501Z,45.11
2019-04-13T07:42:58.146Z,45.12
2019-04-13T07:44:00.567Z,45.08
2019-04-13T07:45:27.739Z,45.10
2019-04-13T07:46:37.562Z,45.10
2019-04-13T07:47:57.748Z,45.09
2019-04-13T07:49:18.894Z,45.13
2019-04-13T07:50:28.883Z,45.02
2019-04-13T07:51:51.784Z,45.09
2019-04-13T07:52:54.122Z,45.03
2019-04-13T07:53:56.365Z,45.07
2019-04-13T07:54:58.639Z,45.08
2019-04-13T07:56:00.855Z,45.06
2019-04-13T07:57:05.321Z,45.07
2019-04-13T07:58:06.939Z,45.06
2019-04-13T07:59:09.136Z,45.03
2019-04-13T08:00:11.367Z,45.07
2019-04-13T08:01:13.572Z,45.08
2019-04-13T08:02:16.300Z,45.06
2019-04-13T08:03:18.501Z,45.03
2019-04-13T08:04:20.726Z,45.05
2019-04-13T08:05:22.946Z,45.09
2019-04-13T08:06:26.059Z,45.07
2019-04-13T08:07:28.399Z,45.07
2019-04-13T08:08:39.627Z,45.10
2019-04-13T08:09:36.180Z,45.04
2019-04-13T08:10:38.432Z,45.07
2019-04-13T08:11:40.642Z,45.05
2019-04-13T08:12:42.981Z,45.06
2019-04-13T08:13:45.200Z,45.08
2019-04-13T08:14:47.402Z,45.04
2019-04-13T08:15:49.603Z,45.06
2019-04-13T08:16:51.815Z,45.02
2019-04-13T08:17:54.042Z,45.03
2019-04-13T08:19:06.668Z,45.03
2019-04-13T08:20:33.848Z,45.03
2019-04-13T08:21:37.484Z,45.00
2019-04-13T08:22:39.699Z,44.98
2019-04-13T08:23:54.214Z,44.98
2019-04-13T08:24:56.402Z,44.93
2019-04-13T08:25:58.640Z,44.95
2019-04-13T08:27:00.870Z,44.98
2019-04-13T08:28:03.074Z,44.99
2019-04-13T08:29:05.280Z,44.99
2019-04-13T08:30:08.612Z,44.96
2019-04-13T08:31:10.847Z,44.96
2019-04-13T08:32:13.064Z,44.95
2019-04-13T08:33:15.264Z,45.00
2019-04-13T08:34:17.482Z,44.96
2019-04-13T08:35:19.799Z,44.95
2019-04-13T08:36:22.016Z,44.94
2019-04-13T08:37:24.221Z,44.92
2019-04-13T08:38:28.668Z,44.92
2019-04-13T08:39:30.308Z,44.94
2019-04-13T08:40:32.519Z,44.96
2019-04-13T08:41:34.742Z,44.97
2019-04-13T08:42:36.946Z,45.00
2019-04-13T08:43:39.206Z,44.96
2019-04-13T08:44:41.389Z,44.99
2019-04-13T08:45:44.365Z,44.93
2019-04-13T08:46:47.158Z,44.91
2019-04-13T08:47:49.449Z,44.92
2019-04-13T08:48:51.662Z,44.94
2019-04-13T08:49:53.853Z,44.90
2019-04-13T08:50:56.078Z,44.88
2019-04-13T08:51:58.284Z,44.91
2019-04-13T08:53:00.483Z,44.93
2019-04-13T08:54:02.699Z,44.96
2019-04-13T08:55:04.928Z,44.94
2019-04-13T08:56:07.159Z,44.94
2019-04-13T08:57:09.379Z,44.92
2019-04-13T08:58:11.602Z,44.89
2019-04-13T08:59:14.068Z,44.90
2019-04-13T09:00:16.656Z,44.89
2019-04-13T09:01:18.905Z,44.89
2019-04-13T09:02:21.216Z,44.87
2019-04-13T09:03:23.425Z,44.87
2019-04-13T09:04:25.660Z,44.83
2019-04-13T09:05:27.865Z,44.86
2019-04-13T09:06:30.169Z,44.78
2019-04-13T09:07:32.360Z,44.81
2019-04-13T09:08:34.562Z,44.83
2019-04-13T09:09:38.767Z,44.85
2019-04-13T09:10:41.493Z,44.86
2019-04-13T09:11:43.919Z,44.82
2019-04-13T09:12:50.109Z,44.76
2019-04-13T09:13:49.959Z,44.83
2019-04-13T09:14:55.612Z,44.74
2019-04-13T09:15:56.145Z,44.72
2019-04-13T09:16:58.357Z,44.78
2019-04-13T09:18:37.955Z,44.93
2019-04-13T09:19:48.766Z,44.99
2019-04-13T09:21:05.780Z,44.93
2019-04-13T09:22:22.489Z,45.22
2019-04-13T09:23:25.410Z,45.03
2019-04-13T09:24:27.696Z,45.02
2019-04-13T09:25:29.907Z,45.00
2019-04-13T09:26:36.321Z,45.02
2019-04-13T09:27:40.321Z,45.02
2019-04-13T09:28:42.867Z,45.04
2019-04-13T09:29:44.568Z,45.03
2019-04-13T09:30:47.664Z,45.04
2019-04-13T09:31:50.167Z,45.03
2019-04-13T09:32:52.513Z,45.07
2019-04-13T09:33:54.730Z,45.08
2019-04-13T09:34:56.947Z,45.22
2019-04-13T09:35:59.157Z,45.25
2019-04-13T09:37:01.388Z,45.20
2019-04-13T09:38:03.792Z,45.22
2019-04-13T09:39:07.463Z,45.21
2019-04-13T09:40:09.694Z,45.19
2019-04-13T09:41:11.931Z,45.17
2019-04-13T09:42:14.152Z,45.15
2019-04-13T09:43:23.950Z,45.15
2019-04-13T09:44:31.605Z,45.14
2019-04-13T09:45:34.518Z,45.14
2019-04-13T09:46:38.125Z,45.12
2019-04-13T09:47:42.236Z,45.08
2019-04-13T09:48:48.667Z,45.21
2019-04-13T09:49:49.623Z,45.42
2019-04-13T09:50:52.073Z,45.59
2019-04-13T09:51:54.420Z,45.54
2019-04-13T09:52:56.659Z,45.50
2019-04-13T09:53:58.878Z,45.45
2019-04-13T09:55:01.091Z,45.33
2019-04-13T09:56:03.522Z,45.56
2019-04-13T09:57:07.309Z,45.47
2019-04-13T09:58:09.527Z,45.61
2019-04-13T09:59:13.557Z,45.56
2019-04-13T10:00:15.779Z,45.65
2019-04-13T10:01:17.977Z,45.55
2019-04-13T10:02:20.214Z,45.63
2019-04-13T10:03:22.434Z,45.56
2019-04-13T10:04:24.652Z,45.56
2019-04-13T10:05:29.162Z,45.58
2019-04-13T10:06:30.718Z,45.56
2019-04-13T10:07:32.958Z,45.60
2019-04-13T10:08:35.183Z,45.62
2019-04-13T10:09:39.700Z,45.58
2019-04-13T10:10:41.831Z,45.56
2019-04-13T10:11:53.360Z,45.54
2019-04-13T10:13:10.155Z,45.54
2019-04-13T10:14:36.273Z,45.52
2019-04-13T10:16:06.104Z,45.55
2019-04-13T10:17:15.871Z,45.54
2019-04-13T10:18:22.204Z,45.59
2019-04-13T10:19:24.517Z,45.61
2019-04-13T10:20:26.743Z,45.58
2019-04-13T10:21:28.962Z,45.63
2019-04-13T10:22:31.192Z,45.59
2019-04-13T10:23:33.419Z,45.55
2019-04-13T10:24:38.713Z,45.58
2019-04-13T10:25:40.918Z,45.57
2019-04-13T10:26:43.123Z,45.57
2019-04-13T10:27:47.672Z,45.56
2019-04-13T10:28:49.234Z,45.58
2019-04-13T10:29:51.441Z,45.57
2019-04-13T10:30:55.781Z,45.56
2019-04-13T10:31:58.992Z,45.58
2019-04-13T10:33:01.418Z,45.54
2019-04-13T10:34:03.628Z,45.59
2019-04-13T10:35:06.243Z,45.61
2019-04-13T10:36:08.467Z,45.68
2019-04-13T10:37:10.697Z,45.68
2019-04-13T10:38:12.925Z,45.70
2019-04-13T10:39:15.123Z,45.73
2019-04-13T10:40:17.366Z,45.72
2019-04-13T10:41:19.573Z,45.73
2019-04-13T10:42:21.794Z,45.69
2019-04-13T10:43:24.049Z,45.72
2019-04-13T10:44:32.322Z,45.73
2019-04-13T10:46:08.885Z,45.74
2019-04-13T10:47:33.146Z,45.75
2019-04-13T10:49:12.725Z,46.17
2019-04-13T10:50:42.543Z,46.13
2019-04-13T10:52:03.698Z,46.07
2019-04-13T10:53:06.131Z,46.10
2019-04-13T10:54:08.346Z,46.05
2019-04-13T10:55:10.567Z,46.08
2019-04-13T10:56:12.782Z,46.02
2019-04-13T10:57:15.012Z,46.05
2019-04-13T10:58:17.298Z,46.05
2019-04-13T10:59:19.503Z,45.98
2019-04-13T11:00:22.041Z,46.04
2019-04-13T11:01:24.383Z,45.97
2019-04-13T11:02:26.591Z,46.07
2019-04-13T11:03:28.800Z,46.08
2019-04-13T11:04:31.012Z,46.08
2019-04-13T11:05:33.251Z,46.16
2019-04-13T11:06:35.478Z,46.01
2019-04-13T11:07:37.672Z,46.03
2019-04-13T11:08:39.900Z,46.07
2019-04-13T11:09:42.110Z,45.99
2019-04-13T11:10:44.327Z,45.96
2019-04-13T11:11:46.549Z,45.97
2019-04-13T11:12:48.775Z,46.02
2019-04-13T11:13:51.003Z,45.97
2019-04-13T11:14:53.218Z,46.01
2019-04-13T11:15:55.411Z,46.07
2019-04-13T11:16:58.818Z,46.15
2019-04-13T11:18:03.936Z,46.08
2019-04-13T11:19:07.491Z,46.12
2019-04-13T11:20:13.723Z,46.08
2019-04-13T11:21:14.374Z,46.05
2019-04-13T11:22:21.711Z,46.07
2019-04-13T11:23:22.137Z,46.06
2019-04-13T11:24:24.358Z,46.08
2019-04-13T11:25:26.546Z,46.10
2019-04-13T11:26:28.762Z,46.07
2019-04-13T11:27:31.013Z,46.07
2019-04-13T11:28:33.215Z,46.13
2019-04-13T11:29:35.424Z,46.06
2019-04-13T11:30:37.640Z,46.06
2019-04-13T11:31:39.874Z,46.13
2019-04-13T11:32:42.230Z,46.12
2019-04-13T11:33:44.453Z,46.04
2019-04-13T11:34:46.664Z,46.02
2019-04-13T11:35:48.868Z,46.09
2019-04-13T11:36:51.108Z,46.04
2019-04-13T11:37:53.356Z,46.08
2019-04-13T11:38:55.576Z,46.21
2019-04-13T11:39:57.786Z,46.16
2019-04-13T11:41:13.492Z,46.12
2019-04-13T11:42:33.702Z,46.19
2019-04-13T11:43:54.070Z,46.15
2019-04-13T11:45:14.293Z,46.15
2019-04-13T11:46:47.585Z,46.21
2019-04-13T11:48:08.431Z,46.10
2019-04-13T11:49:13.274Z,46.44
2019-04-13T11:50:19.144Z,46.47
2019-04-13T11:51:25.499Z,46.54
2019-04-13T11:52:27.725Z,46.48
2019-04-13T11:53:29.936Z,46.45
2019-04-13T11:54:32.179Z,46.40
2019-04-13T11:55:34.800Z,46.36
2019-04-13T11:56:38.007Z,46.30
2019-04-13T11:57:40.317Z,46.32
2019-04-13T11:58:42.528Z,46.35
2019-04-13T11:59:44.870Z,46.30
2019-04-13T12:01:15.125Z,46.34
2019-04-13T12:02:40.239Z,46.31
2019-04-13T12:04:01.397Z,46.24
2019-04-13T12:05:29.087Z,46.28
2019-04-13T12:06:39.671Z,46.19
2019-04-13T12:07:52.758Z,46.29
2019-04-13T12:09:03.912Z,46.34
2019-04-13T12:10:28.165Z,46.23
2019-04-13T12:11:55.971Z,46.56
2019-04-13T12:13:14.310Z,46.75
2019-04-13T12:14:38.266Z,46.64
2019-04-13T12:15:53.063Z,46.28
2019-04-13T12:17:06.288Z,46.08
2019-04-13T12:18:26.070Z,45.64
2019-04-13T12:19:32.856Z,45.03
2019-04-13T12:20:43.426Z,44.88
2019-04-13T12:21:58.796Z,44.47
2019-04-13T12:23:00.990Z,45.00
2019-04-13T12:24:05.693Z,44.88
2019-04-13T12:25:07.899Z,44.81
2019-04-13T12:26:10.152Z,44.98
2019-04-13T12:27:12.364Z,44.65
2019-04-13T12:28:14.579Z,44.57
2019-04-13T12:29:16.793Z,44.92
2019-04-13T12:30:23.316Z,44.92
2019-04-13T12:31:25.620Z,44.76
2019-04-13T12:32:30.290Z,44.78
2019-04-13T12:33:32.478Z,44.73
2019-04-13T12:34:34.697Z,44.77
2019-04-13T12:35:36.915Z,44.80
2019-04-13T12:36:39.164Z,44.32
2019-04-13T12:37:41.371Z,44.39
2019-04-13T12:38:49.592Z,44.33
2019-04-13T12:40:01.552Z,44.52
2019-04-13T12:40:59.637Z,44.72
2019-04-13T12:42:05.511Z,44.86
2019-04-13T12:43:06.374Z,44.83
2019-04-13T12:44:08.579Z,44.80
2019-04-13T12:45:10.851Z,44.62
2019-04-13T12:46:13.063Z,44.65
2019-04-13T12:47:18.515Z,44.63
2019-04-13T12:48:20.734Z,44.65
2019-04-13T12:49:22.954Z,44.75
2019-04-13T12:50:25.153Z,44.70
2019-04-13T12:51:27.382Z,44.88
2019-04-13T12:52:30.408Z,44.88
2019-04-13T12:53:32.719Z,44.77
2019-04-13T12:54:37.232Z,44.65
2019-04-13T12:55:38.805Z,44.75
2019-04-13T12:56:41.053Z,44.74
2019-04-13T12:57:43.283Z,44.93
2019-04-13T12:58:45.537Z,45.08
2019-04-13T12:59:47.756Z,45.03
2019-04-13T13:00:59.304Z,45.00
2019-04-13T13:02:16.270Z,44.99
2019-04-13T13:03:21.398Z,45.01
2019-04-13T13:04:24.731Z,45.01
2019-04-13T13:05:29.805Z,45.02
2019-04-13T13:06:32.057Z,45.01
2019-04-13T13:07:37.135Z,45.03
2019-04-13T13:08:39.699Z,45.05
2019-04-13T13:09:42.447Z,45.05
2019-04-13T13:10:45.295Z,45.06
2019-04-13T13:11:47.537Z,45.12
2019-04-13T13:12:49.741Z,45.16
2019-04-13T13:13:52.910Z,45.19
2019-04-13T13:14:55.775Z,45.26
2019-04-13T13:15:58.015Z,45.31
2019-04-13T13:17:00.233Z,45.36
2019-04-13T13:18:02.489Z,45.35
2019-04-13T13:19:04.645Z,45.40
2019-04-13T13:20:06.859Z,45.42
2019-04-13T13:21:09.115Z,45.43
2019-04-13T13:22:15.894Z,45.53
2019-04-13T13:23:17.910Z,45.55
2019-04-13T13:24:20.287Z,45.63
2019-04-13T13:25:22.536Z,45.72
2019-04-13T13:26:24.893Z,45.85
2019-04-13T13:27:27.286Z,45.81
2019-04-13T13:28:30.855Z,45.96
2019-04-13T13:29:33.092Z,45.94
2019-04-13T13:30:35.280Z,46.03
2019-04-13T13:31:37.497Z,46.09
2019-04-13T13:32:39.771Z,46.22
2019-04-13T13:33:42.011Z,46.19
2019-04-13T13:34:44.226Z,46.69
2019-04-13T13:35:46.495Z,47.10
2019-04-13T13:36:53.770Z,46.54
2019-04-13T13:37:52.631Z,46.69
2019-04-13T13:38:54.893Z,46.68
2019-04-13T13:39:57.175Z,46.63
2019-04-13T13:40:59.386Z,46.42
2019-04-13T13:42:01.622Z,46.53
2019-04-13T13:43:03.876Z,46.44
2019-04-13T13:44:06.108Z,46.56
2019-04-13T13:45:08.349Z,46.88
2019-04-13T13:46:11.528Z,46.88